Flight Track Log - Related Links

Times and Time Zones

All times are in EDT time to prevent confusion due to time zone crossing. See the C-GONN flight status page for this flight to view local times or setup timezone preferences in your user account.

Time Position Orientation Groundspeed Altitude Reporting Facility
EDT Latitude Longitude Course Direction KTS MPH feet Rate Location/Type
Sat 06:55:32 PM 50.7000 -120.4833 209° Southwest 100 115 3,200  Level Vancouver Center
Sat 06:56:32 PM 50.7000 -120.5333 270° West 110 127 4,800 1,300 Climbing Vancouver Center
Sat 06:57:32 PM 50.6833 -120.5500 212° Southwest 110 127 5,800 1,200 Climbing Vancouver Center
Sat 06:58:32 PM 50.6667 -120.5833 232° Southwest 120 138 7,200 1,400 Climbing Vancouver Center
Sat 06:59:00 PM 50.4758 -120.5075 212° Southwest  Level FlightAware Approximate
Sat 06:59:32 PM 50.6333 -120.6167 212° Southwest 120 138 8,600  Level Vancouver Center
Sat 07:00:00 PM 50.4243 -120.5505 203° Southwest  Level FlightAware Approximate
Sat 07:00:32 PM 50.6167 -120.6333 212° Southwest 120 138 9,900  Level Vancouver Center
Sat 07:01:00 PM 50.3720 -120.5912 209° Southwest  Level FlightAware Approximate
Sat 07:01:32 PM 50.5833 -120.7000 232° Southwest 130 150 11,100  Level Vancouver Center
Sat 07:02:32 PM 50.5500 -120.7167 198° South 150 173 12,700 1,350 Climbing Vancouver Center
Sat 07:03:32 PM 50.5167 -120.7833 232° Southwest 160 184 13,800 1,091 Climbing Vancouver Center
Sat 07:04:33 PM 50.4667 -120.8333 212° Southwest 160 184 14,900 1,240 Climbing Vancouver Center
Sat 07:05:33 PM 50.4333 -120.8667 212° Southwest 160 184 16,300 1,150 Climbing Vancouver Center
Sat 07:06:33 PM 50.4000 -120.9167 224° Southwest 180 207 17,200 1,050 Climbing Vancouver Center
Sat 07:07:33 PM 50.3500 -120.9667 213° Southwest 180 207 18,400 1,150 Climbing Vancouver Center
Sat 07:08:33 PM 50.3167 -121.0333 232° Southwest 180 207 19,500 800 Climbing Vancouver Center
Sat 07:09:33 PM 50.2667 -121.0833 213° Southwest 180 207 20,000 250 Climbing Vancouver Center
Sat 07:10:33 PM 50.2500 -121.1333 242° Southwest 200 230 20,000  Level Vancouver Center
Sat 07:11:33 PM 50.2000 -121.1833 213° Southwest 220 253 20,000  Level Vancouver Center
Sat 07:12:33 PM 50.1500 -121.2500 221° Southwest 230 265 20,000  Level Vancouver Center
Sat 07:13:33 PM 50.1000 -121.3000 213° Southwest 230 265 20,000  Level Vancouver Center
Sat 07:14:33 PM 50.0333 -121.3833 219° Southwest 240 276 20,000  Level Vancouver Center
Sat 07:15:33 PM 49.9833 -121.4333 213° Southwest 240 276 20,000  Level Vancouver Center
Sat 07:16:33 PM 49.9333 -121.5167 227° Southwest 240 276 20,000  Level Vancouver Center
Sat 07:17:33 PM 49.8833 -121.5667 213° Southwest 240 276 20,000  Level Vancouver Center
Sat 07:19:00 PM 49.8375 -121.6774 237° Southwest  Level Estimated
Sat 07:26:00 PM 49.6147 -122.2087 237° Southwest  Level Estimated
Sat 07:27:00 PM 49.5827 -122.2842 237° Southwest  Level Estimated
Sat 07:28:00 PM 49.5506 -122.3597 237° Southwest  Level Estimated
Sat 07:29:00 PM 49.5185 -122.4350 237° Southwest  Level Estimated
Sat 07:30:00 PM 49.4863 -122.5102 237° Southwest  Level Estimated
Sat 07:31:00 PM 49.4541 -122.5853 237° Southwest  Level Estimated
Sat 07:32:00 PM 49.4218 -122.6603 237° Southwest  Level Estimated
Sat 07:33:00 PM 49.3895 -122.7353 236° Southwest  Level Estimated
Sat 07:34:00 PM 49.3572 -122.8101 236° Southwest  Level Estimated
Sat 07:35:00 PM 49.3248 -122.8848 236° Southwest  Level Estimated
Sat 07:36:00 PM 49.2923 -122.9594 236° Southwest  Level Estimated
Sat 07:37:00 PM 49.2598 -123.0340 236° Southwest  Level Estimated
Sat 07:38:00 PM 49.2272 -123.1084 236° Southwest  Level Estimated
Sat 07:39:00 PM 49.1946 -123.1827 236° Southwest  Level Estimated
Sat 07:40:00 PM 49.1939 -123.1844 236° Southwest  Level Estimated
Sat 07:41:00 PM 49.1939 -123.1844 249° West  Level Estimated
Sat 07:42:00 PM 49.1939 -123.1844 249° West  Level Estimated
Sat 07:43:00 PM 49.1939 -123.1844 249° West  Level Estimated
Sat 07:44:00 PM 49.1939 -123.1844 249° West  Level Estimated
Sat 07:45:00 PM 49.1939 -123.1844 249° West  Level Estimated
Sat 07:46:00 PM 49.1939 -123.1844 249° West  Level Estimated
Sat 07:47:00 PM 49.1939 -123.1844 249° West  Level Estimated
Sat 07:48:00 PM 49.1939 -123.1844 249° West  Level Estimated
Sat 07:49:00 PM 49.1939 -123.1844 249° West  Level Estimated
Sat 07:50:00 PM 49.1939 -123.1844 249° West  Level Estimated
Sat 07:51:00 PM 49.1939 -123.1844 249° West  Level Estimated
Sat 07:52:00 PM 49.1939 -123.1844 249° West  Level Estimated
Sat 07:53:00 PM 49.1939 -123.1844 249° West  Level Estimated
Sat 07:54:00 PM 49.1939 -123.1844 249° West  Level Estimated

Login

Don't have an account? Register now (free) for customized features, flight alerts, and more!